Talacasto, Argentina
Current Conditions -  °F | °C
As of 3:00 PM on Tuesday 21 Oct 2014 (Local Time) from SAME Reporting Station
Clear Clear  
Wind Chill: 91°   Ceiling: Unl
Heat Index: 91°   Visibility: 6mi
Dew Point: 46°   Wind: 10mph
Humidity: 21%   Direction: 50°NE
Pressure: 29.83"   Gusts: NA
Location:  31.11°S, 68.64°W
Report Text: SAME 211800Z 05009KT CAVOK 33/08 Q1010
Loading
Personal Weather Stations






























Interactive Weather Map
Tropical Storm Tracking
New forecast layout! Learn more

10-Day Weather Forecast

Advertisements
Track Severe Weather on mobile